Latest Weather Observations for Little Bay

IDN60801

Issued at 2:22 am EDT Thursday 30 January 2020 (issued every 10 minutes, with the page automatically refreshed every 10 minutes)

About weather observations | Map of weather stations | Latest weather observations for NSW | Other Formats
Station Details ID: 066051 Name: LITTLE BAY (THE COAST GOLF CLUB) Lat: -33.98 Lon: 151.25 Height: 22.0 m
Data from the previous 72 hours. | See also: Recent months at Little Bay
Date/Time
EDT
Temp
°C
App
Temp
°C
Dew
Point
°C
Rel
Hum
%
Delta-T
°C
Wind Press
QNH
hPa
Press
MSL
hPa
Rain since
9am
mm
Dir  Spd
km/h
Gust
km/h
Spd
kts
Gust
kts
30/02:00am - - - - - CALM 0 0 0 0 - - -
30/01:30am - - - - - CALM 0 0 0 0 - - -
30/01:00am - - - - - CALM 0 0 0 0 - - -
30/12:30am - - - - - CALM 0 2 0 1 - - -
30/12:00am - - - - - SE 2 6 1 3 - - -
 
Date/Time
EDT
Temp
°C
App
Temp
°C
Dew
Point
°C
Rel
Hum
%
Delta-T
°C
Wind Press
QNH
hPa
Press
MSL
hPa
Rain since
9am
mm
Dir  Spd
km/h
Gust
km/h
Spd
kts
Gust
kts
29/11:30pm - - - - - E 6 9 3 5 - - -
29/11:00pm - - - - - ESE 6 7 3 4 - - -
29/10:30pm - - - - - ESE 6 7 3 4 - - -
29/10:00pm - - - - - ESE 7 9 4 5 - - -
29/09:30pm - - - - - ESE 7 7 4 4 - - -
29/09:00pm - - - - - ESE 7 11 4 6 - - -
29/08:30pm - - - - - ESE 9 11 5 6 - - -
29/08:00pm - - - - - ESE 11 15 6 8 - - -
29/07:30pm - - - - - ESE 15 20 8 11 - - -
29/07:00pm - - - - - ESE 15 20 8 11 - - -
29/06:30pm - - - - - ESE 19 24 10 13 - - -
29/06:00pm - - - - - ESE 19 22 10 12 - - -
29/05:30pm - - - - - SE 20 24 11 13 - - -
29/05:00pm - - - - - ESE 17 24 9 13 - - -
29/04:30pm - - - - - ESE 17 20 9 11 - - -
29/04:00pm - - - - - ESE 15 19 8 10 - - -
29/03:30pm - - - - - ESE 15 20 8 11 - - -
29/03:00pm - - - - - SSE 17 20 9 11 - - -
29/02:30pm - - - - - SSE 17 20 9 11 - - -
29/02:00pm - - - - - SSE 17 24 9 13 - - -
29/01:30pm - - - - - S 19 26 10 14 - - -
29/01:00pm - - - - - SSE 19 24 10 13 - - -
29/12:30pm - - - - - SSE 19 24 10 13 - - -
29/12:00pm - - - - - S 19 26 10 14 - - -
29/11:30am - - - - - S 20 26 11 14 - - -
29/11:00am - - - - - S 19 24 10 13 - - -
29/10:30am - - - - - S 19 26 10 14 - - -
29/10:00am - - - - - S 19 26 10 14 - - -
29/09:30am - - - - - S 20 26 11 14 - - -
29/09:00am - - - - - S 19 24 10 13 - - -
29/08:30am - - - - - S 17 24 9 13 - - -
29/08:00am - - - - - S 17 24 9 13 - - -
29/07:30am - - - - - S 24 32 13 17 - - -
29/07:00am - - - - - S 22 30 12 16 - - -
29/06:30am - - - - - S 26 35 14 19 - - -
29/06:00am - - - - - S 22 32 12 17 - - -
29/05:30am - - - - - S 22 30 12 16 - - -
29/05:00am - - - - - SSW 22 33 12 18 - - -
29/04:30am - - - - - SSW 22 32 12 17 - - -
29/04:00am - - - - - S 20 28 11 15 - - -
29/03:30am - - - - - S 22 28 12 15 - - -
29/03:00am - - - - - SSE 20 30 11 16 - - -
29/02:30am - - - - - S 22 30 12 16 - - -
29/02:00am - - - - - S 24 33 13 18 - - -
29/01:30am - - - - - SSW 22 32 12 17 - - -
29/01:00am - - - - - SSW 26 35 14 19 - - -
29/12:30am - - - - - SSW 26 33 14 18 - - -
29/12:00am - - - - - S 24 33 13 18 - - -
 
Date/Time
EDT
Temp
°C
App
Temp
°C
Dew
Point
°C
Rel
Hum
%
Delta-T
°C
Wind Press
QNH
hPa
Press
MSL
hPa
Rain since
9am
mm
Dir  Spd
km/h
Gust
km/h
Spd
kts
Gust
kts
28/11:30pm - - - - - S 22 32 12 17 - - -
28/11:00pm - - - - - SSW 20 30 11 16 - - -
28/10:30pm - - - - - S 22 30 12 16 - - -
28/10:00pm - - - - - S 22 32 12 17 - - -
28/09:30pm - - - - - S 24 32 13 17 - - -
28/09:00pm - - - - - S 26 33 14 18 - - -
28/08:30pm - - - - - S 26 32 14 17 - - -
28/08:00pm - - - - - S 28 37 15 20 - - -
28/07:30pm - - - - - S 22 32 12 17 - - -
28/07:00pm - - - - - S 19 30 10 16 - - -
28/06:30pm - - - - - S 17 24 9 13 - - -
28/06:00pm - - - - - SSE 15 20 8 11 - - -
28/05:30pm - - - - - ESE 7 11 4 6 - - -
28/05:00pm - - - - - SE 13 17 7 9 - - -
28/04:30pm - - - - - E 7 9 4 5 - - -
28/04:00pm - - - - - ENE 9 13 5 7 - - -
28/03:30pm - - - - - ENE 9 13 5 7 - - -
28/03:00pm - - - - - NE 15 19 8 10 - - -
28/02:30pm - - - - - NE 9 15 5 8 - - -
28/02:00pm - - - - - ESE 7 11 4 6 - - -
28/01:30pm - - - - - SE 9 13 5 7 - - -
28/01:00pm - - - - - SE 11 13 6 7 - - -
28/12:30pm - - - - - SE 11 13 6 7 - - -
28/12:00pm - - - - - SE 11 13 6 7 - - -
28/11:30am - - - - - SE 11 11 6 6 - - -
28/11:00am - - - - - SE 9 11 5 6 - - -
28/10:30am - - - - - SSW 9 13 5 7 - - -
28/10:00am - - - - - SSW 15 19 8 10 - - -
28/09:30am - - - - - S 11 17 6 9 - - -
28/09:00am - - - - - S 9 13 5 7 - - -
28/08:30am - - - - - S 7 9 4 5 - - -
28/08:00am - - - - - SSE 4 6 2 3 - - -
28/07:30am - - - - - SSW 4 6 2 3 - - -
28/07:00am - - - - - SSW 6 7 3 4 - - -
28/06:30am - - - - - SW 6 6 3 3 - - -
28/06:00am - - - - - CALM 0 0 0 0 - - -
28/05:30am - - - - - CALM 0 0 0 0 - - -
28/05:00am - - - - - CALM 0 2 0 1 - - -
28/04:30am - - - - - N 6 9 3 5 - - -
28/04:00am - - - - - CALM 0 0 0 0 - - -
28/03:30am - - - - - NNE 6 11 3 6 - - -
28/03:00am - - - - - N 7 11 4 6 - - -
28/02:30am - - - - - NNE 11 17 6 9 - - -
28/02:00am - - - - - NNE 19 24 10 13 - - -
28/01:30am - - - - - NNE 22 26 12 14 - - -
28/01:00am - - - - - NNE 20 30 11 16 - - -
28/12:30am - - - - - NNE 17 24 9 13 - - -
28/12:00am - - - - - NNE 13 19 7 10 - - -
 
Date/Time
EDT
Temp
°C
App
Temp
°C
Dew
Point
°C
Rel
Hum
%
Delta-T
°C
Wind Press
QNH
hPa
Press
MSL
hPa
Rain since
9am
mm
Dir  Spd
km/h
Gust
km/h
Spd
kts
Gust
kts
27/11:30pm - - - - - NNE 13 19 7 10 - - -
27/11:00pm - - - - - NNE 19 26 10 14 - - -
27/10:30pm - - - - - NNE 24 32 13 17 - - -
27/10:00pm - - - - - NNE 24 32 13 17 - - -
27/09:30pm - - - - - NNE 26 33 14 18 - - -
27/09:00pm - - - - - NNE 19 26 10 14 - - -
27/08:30pm - - - - - N 22 32 12 17 - - -
27/08:00pm - - - - - NNE 22 33 12 18 - - -
27/07:30pm - - - - - N 19 28 10 15 - - -
27/07:00pm - - - - - NNE 22 30 12 16 - - -
27/06:30pm - - - - - ENE 9 13 5 7 - - -
27/06:00pm - - - - - E 7 9 4 5 - - -
27/05:30pm - - - - - ESE 9 11 5 6 - - -
27/05:00pm - - - - - ESE 9 11 5 6 - - -
27/04:30pm - - - - - ESE 9 11 5 6 - - -
27/04:00pm - - - - - ESE 11 13 6 7 - - -
27/03:30pm - - - - - SE 13 15 7 8 - - -
27/03:00pm - - - - - SSE 15 17 8 9 - - -
27/02:30pm - - - - - SSE 17 19 9 10 - - -
27/02:00pm - - - - - SSE 17 22 9 12 - - -
27/01:30pm - - - - - SSE 20 28 11 15 - - -
27/01:00pm - - - - - S 22 28 12 15 - - -
27/12:30pm - - - - - S 22 30 12 16 - - -
27/12:00pm - - - - - S 20 28 11 15 - - -
27/11:30am - - - - - SSW 20 30 11 16 - - -
27/11:00am - - - - - SSW 24 30 13 16 - - -
27/10:30am - - - - - S 24 33 13 18 - - -
27/10:00am - - - - - S 24 32 13 17 - - -
27/09:30am - - - - - SSW 24 35 13 19 - - -
27/09:00am - - - - - SSW 26 35 14 19 - - -
27/08:30am - - - - - SSW 24 33 13 18 - - -
27/08:00am - - - - - SSW 26 35 14 19 - - -
27/07:30am - - - - - SSW 24 37 13 20 - - -
27/07:00am - - - - - SSW 26 35 14 19 - - -
27/06:30am - - - - - SSW 22 35 12 19 - - -
27/06:00am - - - - - SSW 26 35 14 19 - - -
27/05:30am - - - - - SSW 24 33 13 18 - - -
27/05:00am - - - - - SSW 26 43 14 23 - - -
27/04:30am - - - - - SSW 28 41 15 22 - - -
27/04:00am - - - - - SSW 28 39 15 21 - - -
27/03:30am - - - - - SSW 32 44 17 24 - - -
27/03:00am - - - - - SSW 35 54 19 29 - - -
27/02:53am - - - - - SSW 33 54 18 29 - - -
27/02:30am - - - - - SSW 33 46 18 25 - - -

Other formats

Comma delimited format used in spreadsheet applications
http://www.bom.gov.au/fwo/IDN60801/IDN60801.94780.axf

JavaScript Object Notation format (JSON) in row-major order
http://www.bom.gov.au/fwo/IDN60801/IDN60801.94780.json

Data quality

Most of these data are generated automatically and are frequently updated. Quality checks on data are not normally performed. It is possible for incorrect values to appear. Refer to information at About Latest Weather Observations and please check the disclaimer before using these data.